Time;durP1;ratioP1;P1;durP2;ratioP2;P2;SDS_P1;SDS_P2;PMS_P1;PMS_P2;Temp;Humidity;BMP_temperature;BMP_pressure;BME280_temperature;BME280_humidity;BME280_pressure;Samples;Min_cycle;Max_cycle;Signal;HPM_P1;HPM_P2
2022/06/08 00:00:24;;;;;;;11.50;8.55;;;12.60;99.90;;;11.53;100.00;100633.88;4963164;28;20045;-75
2022/06/08 00:03:00;;;;;;;17.05;10.10;;;12.50;99.90;;;11.48;100.00;100631.47;4932780;28;20019;-75
2022/06/08 00:05:27;;;;;;;21.63;10.10;;;12.50;99.90;;;11.43;100.00;100628.25;4958516;28;20085;-75
2022/06/08 00:07:53;;;;;;;18.38;12.65;;;12.50;99.90;;;11.43;100.00;100631.72;4934343;28;20722;-75
2022/06/08 00:10:19;;;;;;;20.60;12.13;;;12.50;99.90;;;11.45;100.00;100626.38;4956161;28;20026;-76
2022/06/08 00:12:44;;;;;;;12.55;9.15;;;12.50;99.90;;;11.46;100.00;100625.44;4951573;28;20095;-75
2022/06/08 00:15:12;;;;;;;13.05;9.35;;;12.50;99.90;;;11.41;100.00;100619.56;4952961;28;20026;-76
2022/06/08 00:17:38;;;;;;;10.40;6.07;;;12.40;99.90;;;11.37;100.00;100623.28;4959100;28;20519;-75
2022/06/08 00:20:07;;;;;;;10.10;7.13;;;12.40;99.90;;;11.30;100.00;100622.75;4936606;28;20015;-75
2022/06/08 00:22:33;;;;;;;11.45;6.88;;;12.30;99.90;;;11.09;100.00;100628.16;4952440;28;20034;-75
2022/06/08 00:24:59;;;;;;;7.25;5.22;;;12.20;99.90;;;11.01;100.00;100640.00;4936707;28;20464;-75
2022/06/08 00:30:10;;;;;;;9.35;7.10;;;12.00;99.90;;;10.84;100.00;100633.81;4958190;28;19921;-75
2022/06/08 00:32:36;;;;;;;9.38;6.65;;;11.90;99.90;;;10.84;100.00;100627.66;4951444;28;20329;-75
2022/06/08 00:35:03;;;;;;;6.78;5.53;;;11.90;99.90;;;10.86;100.00;100637.22;4961141;28;20027;-75
2022/06/08 00:37:29;;;;;;;12.10;9.77;;;11.90;99.90;;;10.91;100.00;100641.38;4961655;28;20033;-75
2022/06/08 00:39:55;;;;;;;6.00;4.75;;;11.90;99.90;;;10.96;100.00;100644.66;4950700;28;20075;-76
2022/06/08 00:42:22;;;;;;;12.50;6.60;;;12.00;99.90;;;10.99;100.00;100639.25;4948865;28;20526;-74
2022/06/08 00:44:58;;;;;;;8.90;6.85;;;12.00;99.90;;;10.99;100.00;100644.50;4954967;28;20023;-75
2022/06/08 00:47:34;;;;;;;8.18;7.28;;;12.00;99.90;;;11.00;100.00;100639.16;4927837;28;20028;-75
2022/06/08 00:50:27;;;;;;;8.23;6.28;;;12.00;99.90;;;10.95;100.00;100640.31;4953526;28;20039;-74
2022/06/08 00:52:54;;;;;;;9.27;5.43;;;12.00;99.90;;;10.94;100.00;100644.72;4931500;28;20038;-74
2022/06/08 00:55:26;;;;;;;7.82;7.03;;;12.00;99.90;;;11.00;100.00;100640.97;4961502;28;20073;-74
2022/06/08 00:57:58;;;;;;;9.90;6.00;;;12.10;99.90;;;11.08;100.00;100638.81;4944265;28;20018;-75
2022/06/08 01:00:31;;;;;;;8.65;5.65;;;12.10;99.90;;;11.17;100.00;100648.88;4952604;28;20054;-74
2022/06/08 01:02:58;;;;;;;9.45;5.43;;;12.20;99.90;;;11.26;100.00;100643.13;4941068;28;20485;-74
2022/06/08 01:05:35;;;;;;;11.77;8.20;;;12.30;99.90;;;11.37;100.00;100642.56;4939912;28;20031;-74
2022/06/08 01:08:38;;;;;;;16.30;12.15;;;12.40;99.90;;;11.52;100.00;100640.94;4952976;28;20039;-74
2022/06/08 01:11:20;;;;;;;10.95;8.32;;;12.50;99.90;;;11.63;100.00;100643.03;4956075;28;20685;-75
2022/06/08 01:13:46;;;;;;;20.13;15.82;;;12.60;99.90;;;11.77;100.00;100637.88;4955084;28;20529;-75
2022/06/08 01:16:13;;;;;;;18.55;12.73;;;12.80;99.90;;;11.90;100.00;100640.75;4974994;28;20054;-74
2022/06/08 01:18:40;;;;;;;17.80;12.73;;;12.80;99.90;;;11.99;100.00;100645.53;4933872;28;20034;-75
2022/06/08 01:21:20;;;;;;;13.88;10.18;;;13.00;99.90;;;12.08;100.00;100645.03;4961372;28;20051;-74
2022/06/08 01:23:56;;;;;;;12.68;10.25;;;13.00;99.90;;;12.09;100.00;100637.94;4926076;28;20084;-75
2022/06/08 01:27:00;;;;;;;19.35;13.35;;;13.00;99.90;;;12.07;100.00;100638.06;4958335;28;20043;-74
2022/06/08 01:29:42;;;;;;;23.35;14.60;;;13.10;99.90;;;12.12;100.00;100637.81;4958667;28;20182;-75
2022/06/08 01:32:40;;;;;;;19.05;13.98;;;13.10;99.90;;;12.19;100.00;100638.31;4953251;28;20035;-76
2022/06/08 01:35:06;;;;;;;20.75;15.52;;;13.20;99.90;;;12.28;100.00;100637.81;4935644;28;20042;-75
2022/06/08 01:38:28;;;;;;;21.55;15.05;;;13.30;99.90;;;12.37;100.00;100639.09;4956839;28;20066;-74
2022/06/08 01:41:33;;;;;;;21.95;15.02;;;13.40;99.90;;;12.41;100.00;100637.97;4957916;28;20443;-74
2022/06/08 01:44:34;;;;;;;17.90;14.10;;;13.40;99.90;;;12.41;100.00;100638.81;4951282;28;20109;-75
2022/06/08 01:47:26;;;;;;;18.73;13.15;;;13.50;99.90;;;12.49;100.00;100648.97;4935495;28;20041;-74
2022/06/08 01:50:09;;;;;;;19.90;13.80;;;13.50;99.90;;;12.54;100.00;100641.63;4951618;28;20041;-74
2022/06/08 01:52:53;;;;;;;16.35;13.50;;;13.50;99.90;;;12.52;100.00;100633.78;4941064;28;20086;-75
2022/06/08 01:55:43;;;;;;;23.67;13.18;;;13.60;99.90;;;12.55;100.00;100639.84;4954725;28;20034;-74
2022/06/08 01:58:38;;;;;;;20.58;12.68;;;13.60;99.90;;;12.59;100.00;100628.16;4961183;28;20027;-74
2022/06/08 02:01:33;;;;;;;15.45;12.38;;;13.60;99.90;;;12.58;100.00;100635.25;4947457;28;20050;-74
2022/06/08 02:04:19;;;;;;;19.33;12.43;;;13.60;99.90;;;12.62;100.00;100634.13;4959375;28;20030;-74
2022/06/08 02:07:09;;;;;;;14.25;11.88;;;13.60;99.90;;;12.63;100.00;100635.81;4956782;28;22417;-76
2022/06/08 02:09:50;;;;;;;14.07;11.40;;;13.60;99.90;;;12.60;100.00;100627.25;4962862;28;20114;-75
2022/06/08 02:12:18;;;;;;;15.32;11.40;;;13.50;99.90;;;12.50;100.00;100629.53;4958777;28;20024;-75
2022/06/08 02:15:11;;;;;;;13.75;9.75;;;13.40;99.90;;;12.38;100.00;100628.44;4951802;28;20035;-74
2022/06/08 02:17:45;;;;;;;13.82;8.80;;;13.30;99.90;;;12.27;100.00;100629.03;4948672;28;20043;-75
2022/06/08 02:20:40;;;;;;;14.60;10.52;;;13.20;99.90;;;12.18;100.00;100613.72;4968671;28;20673;-74
2022/06/08 02:23:21;;;;;;;17.83;12.02;;;13.10;99.90;;;12.12;100.00;100624.59;4952785;28;20039;-75
2022/06/08 02:26:02;;;;;;;10.23;8.82;;;13.10;99.90;;;12.09;100.00;100623.00;4958008;28;20038;-75
2022/06/08 02:28:37;;;;;;;17.42;12.73;;;13.10;99.90;;;12.10;100.00;100621.19;4953778;28;20034;-74
2022/06/08 02:31:52;;;;;;;11.75;9.05;;;13.10;99.90;;;12.14;100.00;100629.78;4953794;28;20035;-74
2022/06/08 02:34:28;;;;;;;12.32;9.38;;;13.10;99.90;;;12.11;100.00;100623.72;4956866;28;20053;-75
2022/06/08 02:37:28;;;;;;;10.35;9.00;;;13.10;99.90;;;12.15;100.00;100628.84;4957724;28;20495;-75
2022/06/08 02:40:09;;;;;;;17.70;10.52;;;13.10;99.90;;;12.16;100.00;100620.00;4962340;28;20476;-74
2022/06/08 02:42:45;;;;;;;14.00;10.52;;;13.10;99.90;;;12.17;100.00;100622.56;4950404;28;20516;-75
2022/06/08 02:45:31;;;;;;;13.32;9.40;;;13.10;99.90;;;12.17;100.00;100616.44;4927270;28;20030;-74
2022/06/08 02:48:05;;;;;;;11.93;8.88;;;13.10;99.90;;;12.18;100.00;100626.03;4959819;28;20033;-75
2022/06/08 02:50:32;;;;;;;12.15;9.50;;;13.10;99.90;;;12.18;100.00;100629.56;4943314;28;20031;-75
2022/06/08 02:53:26;;;;;;;15.57;10.73;;;13.10;99.90;;;12.21;100.00;100628.53;4948186;28;20053;-75
2022/06/08 02:56:32;;;;;;;17.58;13.10;;;13.20;99.90;;;12.24;100.00;100634.47;4934748;28;20499;-75
2022/06/08 02:59:21;;;;;;;19.20;13.07;;;13.20;99.90;;;12.25;100.00;100622.16;4960049;28;20037;-74
2022/06/08 03:02:06;;;;;;;18.48;13.02;;;13.10;99.90;;;12.24;100.00;100618.63;4957551;28;20042;-75
2022/06/08 03:05:04;;;;;;;20.48;12.50;;;13.20;99.90;;;12.24;100.00;100623.06;4951237;28;20446;-74
2022/06/08 03:08:00;;;;;;;12.98;10.40;;;13.10;99.90;;;12.20;100.00;100621.53;4951427;28;20039;-75
2022/06/08 03:10:33;;;;;;;15.25;11.32;;;13.10;99.90;;;12.17;100.00;100619.91;4948634;28;20085;-74
2022/06/08 03:13:37;;;;;;;19.63;12.57;;;13.10;99.90;;;12.17;100.00;100616.44;4952610;28;20692;-74
2022/06/08 03:16:07;;;;;;;19.63;13.15;;;13.10;99.90;;;12.18;100.00;100619.00;4942100;28;20418;-73
2022/06/08 03:18:34;;;;;;;22.48;13.65;;;13.10;99.90;;;12.23;100.00;100629.31;4949141;28;20030;-74
2022/06/08 03:21:03;;;;;;;16.42;13.13;;;13.10;99.90;;;12.21;100.00;100631.16;4947385;28;20048;-74
2022/06/08 03:23:30;;;;;;;20.10;13.27;;;13.20;99.90;;;12.30;100.00;100634.13;4944529;28;20043;-74
2022/06/08 03:25:56;;;;;;;21.90;13.75;;;13.20;99.90;;;12.37;100.00;100629.38;4932838;28;20035;-74
2022/06/08 03:28:22;;;;;;;20.20;13.75;;;13.30;99.90;;;12.49;100.00;100631.34;4949781;28;22192;-74
2022/06/08 03:30:48;;;;;;;20.15;13.05;;;13.40;99.90;;;12.57;100.00;100630.91;4955875;28;20033;-74
2022/06/08 03:33:14;;;;;;;18.42;13.50;;;13.50;99.90;;;12.61;100.00;100631.56;4951994;28;20046;-74
2022/06/08 03:35:40;;;;;;;16.52;11.98;;;13.50;99.90;;;12.64;100.00;100620.84;4943113;28;20042;-74
2022/06/08 03:38:08;;;;;;;15.85;11.60;;;13.60;99.90;;;12.79;100.00;100630.53;4936189;28;21003;-74
2022/06/08 03:40:34;;;;;;;17.83;11.27;;;14.10;99.90;;;13.27;100.00;100633.06;4931396;28;21574;-74
2022/06/08 03:43:00;;;;;;;14.50;11.30;;;14.90;99.90;;;14.08;100.00;100622.84;4939422;28;20042;-74
2022/06/08 03:45:32;;;;;;;19.67;11.48;;;15.60;99.90;;;14.88;100.00;100633.63;4946504;28;20035;-75
2022/06/08 03:47:58;;;;;;;11.77;8.60;;;16.40;99.90;;;15.76;97.53;100641.81;4954209;28;20388;-75
2022/06/08 03:50:28;;;;;;;8.90;8.00;;;16.90;99.90;;;16.23;91.37;100644.72;4946067;28;20039;-74
2022/06/08 03:53:09;;;;;;;12.60;9.40;;;17.70;99.90;;;17.32;85.76;100647.38;4955175;28;20077;-75
2022/06/08 03:55:36;;;;;;;10.50;7.68;;;18.20;99.90;;;17.71;81.24;100650.59;4970952;28;20031;-74
2022/06/08 03:58:04;;;;;;;9.30;6.75;;;19.00;99.90;;;18.56;75.94;100650.06;4935366;28;20036;-75
2022/06/08 04:00:31;;;;;;;10.55;7.35;;;19.90;99.90;;;19.58;72.30;100653.16;4931645;28;20043;-74
2022/06/08 04:02:57;;;;;;;11.68;7.80;;;20.70;99.90;;;20.53;69.04;100665.41;4950399;28;20037;-74
2022/06/08 04:05:23;;;;;;;8.88;6.70;;;21.50;99.90;;;21.41;65.28;100679.72;4939435;28;20030;-75
2022/06/08 04:07:49;;;;;;;11.77;6.53;;;22.30;99.90;;;22.15;61.31;100683.47;4935605;28;20503;-75
2022/06/08 04:10:15;;;;;;;9.60;6.53;;;23.00;99.90;;;22.89;59.36;100695.09;4947508;28;20077;-74
2022/06/08 04:12:41;;;;;;;;;;;23.00;99.90;;;23.77;58.12;100697.06;4931075;28;20113;-74
2022/06/08 04:15:08;;;;;;;6.88;5.63;;;24.20;99.90;;;24.40;55.41;100703.94;4959787;28;19914;-74
2022/06/08 04:17:34;;;;;;;8.90;6.30;;;24.80;99.90;;;25.03;53.51;100710.69;4943292;28;20022;-75
2022/06/08 04:20:00;;;;;;;10.68;6.32;;;25.40;99.90;;;25.64;51.41;100732.81;4961467;28;20046;-75
2022/06/08 04:22:31;;;;;;;9.45;6.15;;;25.90;99.90;;;26.31;50.29;100735.25;4949876;28;20038;-75
2022/06/08 04:25:00;;;;;;;14.15;7.32;;;26.50;98.90;;;26.83;48.10;100744.69;4950058;28;20043;-74
2022/06/08 04:27:26;;;;;;;15.35;6.63;;;26.80;97.10;;;26.95;47.22;100749.47;4958696;28;20090;-75
2022/06/08 04:29:54;;;;;;;9.18;6.57;;;27.10;96.60;;;27.29;46.22;100742.03;4945106;28;20039;-74
2022/06/08 04:32:20;;;;;;;8.45;6.32;;;27.20;94.80;;;27.32;45.83;100747.06;4960047;28;20025;-75
2022/06/08 04:34:46;;;;;;;7.57;6.15;;;27.30;95.90;;;27.64;45.12;100755.94;4951511;28;20087;-76
2022/06/08 04:37:12;;;;;;;8.63;6.22;;;27.50;95.20;;;28.01;44.56;100760.50;4950181;28;20577;-76
2022/06/08 04:39:38;;;;;;;8.18;5.80;;;27.70;95.20;;;28.53;42.93;100777.72;4936668;28;20031;-75
2022/06/08 04:42:06;;;;;;;10.50;6.30;;;27.80;94.90;;;28.46;43.29;100776.78;4959733;28;20106;-75
2022/06/08 04:44:33;;;;;;;13.40;6.38;;;28.00;94.20;;;28.57;43.66;100773.63;4942304;28;20023;-75
2022/06/08 04:46:59;;;;;;;11.85;6.10;;;28.10;94.30;;;28.98;42.57;100779.31;4950172;28;20034;-75
2022/06/08 04:49:24;;;;;;;10.23;6.60;;;28.40;93.80;;;29.37;41.57;100788.13;4926803;28;20049;-75
2022/06/08 04:51:50;;;;;;;11.30;5.95;;;28.60;94.30;;;29.90;40.73;100798.66;4951922;28;20496;-76
2022/06/08 04:54:16;;;;;;;7.30;5.35;;;29.00;94.00;;;30.01;40.72;100796.22;4935410;28;20031;-76
2022/06/08 04:56:42;;;;;;;12.40;5.65;;;29.10;93.10;;;30.60;40.06;100794.94;4953420;28;20105;-76
2022/06/08 04:59:09;;;;;;;6.60;4.65;;;29.60;93.20;;;31.63;38.05;100803.03;4957671;28;20395;-76
2022/06/08 05:01:35;;;;;;;8.23;5.10;;;30.40;92.20;;;32.78;36.55;100810.84;4940131;28;20112;-76
2022/06/08 05:04:01;;;;;;;7.85;4.57;;;31.20;92.10;;;33.82;34.62;100808.75;4958104;28;20034;-75
2022/06/08 05:06:27;;;;;;;10.07;4.90;;;32.00;90.70;;;34.62;33.40;100818.06;4945267;28;20051;-75
2022/06/08 05:08:53;;;;;;;5.25;4.05;;;32.60;89.00;;;35.15;32.02;100831.13;4951886;28;20027;-75
2022/06/08 05:11:19;;;;;;;6.78;4.20;;;33.10;86.60;;;35.44;31.83;100828.59;4939971;28;20395;-75
2022/06/08 05:13:46;;;;;;;7.35;4.30;;;33.40;85.80;;;35.73;31.18;100837.88;4950327;28;20089;-76
2022/06/08 05:16:12;;;;;;;8.82;4.47;;;33.70;84.00;;;36.30;30.90;100834.59;4958767;28;20569;-75
2022/06/08 05:18:39;;;;;;;5.05;3.53;;;34.00;83.20;;;36.76;29.73;100849.31;4959785;28;20042;-75
2022/06/08 05:21:05;;;;;;;6.45;3.40;;;34.40;83.00;;;37.09;29.14;100847.81;4942352;28;21331;-76
2022/06/08 05:23:36;;;;;;;4.45;2.97;;;34.70;81.10;;;37.42;27.93;100857.22;4958272;28;20487;-75
2022/06/08 05:26:03;;;;;;;7.40;3.33;;;35.00;79.70;;;37.73;28.03;100867.69;4950717;28;20027;-76
2022/06/08 05:28:29;;;;;;;5.28;3.28;;;35.20;78.80;;;37.68;27.56;100858.53;4921888;28;20141;-77
2022/06/08 05:30:56;;;;;;;5.82;3.10;;;35.20;75.80;;;37.62;27.54;100868.59;4940156;28;20097;-75
2022/06/08 05:33:26;;;;;;;7.68;3.30;;;35.20;77.00;;;37.63;27.07;100867.53;4944661;28;20170;-76
2022/06/08 05:35:53;;;;;;;6.72;2.97;;;35.30;76.90;;;37.90;27.21;100872.34;4954625;28;24891;-76
2022/06/08 05:38:20;;;;;;;5.88;3.10;;;35.40;76.80;;;38.34;26.15;100878.03;4961385;28;20034;-77
2022/06/08 05:40:45;;;;;;;6.65;2.70;;;35.70;74.90;;;38.47;25.94;100880.41;4948596;28;20515;-76
2022/06/08 05:43:15;;;;;;;5.68;2.80;;;36.00;72.30;;;38.75;25.52;100884.94;4954661;28;20041;-76
2022/06/08 05:45:42;;;;;;;8.70;3.00;;;36.20;72.00;;;39.10;25.17;100892.00;4937963;28;20046;-75
2022/06/08 05:48:09;;;;;;;6.90;3.00;;;36.50;73.00;;;39.35;24.84;100893.34;4952640;28;20058;-76
2022/06/08 05:50:37;;;;;;;4.95;2.42;;;36.70;70.00;;;39.50;24.27;100896.28;4952742;28;20145;-75
2022/06/08 05:53:04;;;;;;;6.13;2.47;;;37.00;70.50;;;39.79;24.26;100894.09;4946274;28;20033;-76
2022/06/08 05:55:30;;;;;;;5.70;2.30;;;37.20;68.80;;;39.52;23.84;100896.03;4952681;28;20042;-76
2022/06/08 05:57:56;;;;;;;9.20;2.20;;;37.30;67.20;;;39.26;24.26;100895.75;4961166;28;20133;-76
2022/06/08 06:00:30;;;;;;;7.50;2.63;;;37.30;67.70;;;39.25;23.76;100898.78;4953457;28;20085;-76
2022/06/08 06:02:57;;;;;;;7.93;2.58;;;37.40;66.90;;;39.33;23.70;100901.91;4957848;28;20028;-76
2022/06/08 06:05:28;;;;;;;5.75;2.70;;;37.40;66.00;;;39.40;23.39;100898.97;4960459;28;20030;-76
2022/06/08 06:07:56;;;;;;;6.95;2.55;;;37.60;66.30;;;39.72;23.19;100899.00;4961992;28;20082;-77
2022/06/08 06:10:28;;;;;;;7.47;2.60;;;37.80;66.20;;;39.82;22.99;100906.50;4955497;28;20030;-76
2022/06/08 06:12:54;;;;;;;4.13;2.30;;;37.80;64.40;;;39.67;22.88;100912.72;4943811;28;20468;-76
2022/06/08 06:15:25;;;;;;;4.20;2.15;;;37.80;64.00;;;39.40;23.14;100906.38;4957420;28;20030;-76
2022/06/08 06:17:51;;;;;;;6.97;2.63;;;37.80;64.70;;;39.26;23.73;100895.75;4953535;28;20034;-76
2022/06/08 06:20:18;;;;;;;6.70;2.13;;;37.80;64.30;;;39.59;23.30;100902.16;4942563;28;20034;-76
2022/06/08 06:22:44;;;;;;;6.28;2.30;;;37.90;63.40;;;39.22;22.98;100897.34;4956992;28;20114;-76
2022/06/08 06:25:11;;;;;;;6.25;2.08;;;38.00;64.50;;;39.73;23.37;100897.88;4944572;28;20562;-76
2022/06/08 06:27:38;;;;;;;6.75;2.20;;;38.20;63.10;;;39.91;22.93;100907.72;4925276;28;20019;-76
2022/06/08 06:30:07;;;;;;;5.43;1.80;;;38.50;62.80;;;40.06;22.82;100909.75;4959020;28;20085;-76
2022/06/08 06:32:37;;;;;;;5.32;2.15;;;38.70;62.70;;;40.36;22.10;100909.16;4935804;28;20455;-76
2022/06/08 06:35:08;;;;;;;3.25;2.00;;;39.00;62.10;;;40.72;22.13;100911.34;4955269;28;20162;-77
2022/06/08 06:37:34;;;;;;;4.85;2.03;;;39.40;61.50;;;41.02;21.60;100909.78;4936158;28;20099;-76
2022/06/08 06:40:03;;;;;;;7.70;2.63;;;39.60;60.20;;;40.96;21.89;100903.44;4929343;28;20079;-76
2022/06/08 06:42:33;;;;;;;5.00;2.10;;;39.60;59.80;;;40.73;22.04;100897.25;4950803;28;20046;-77
2022/06/08 06:45:00;;;;;;;6.70;2.20;;;39.70;59.90;;;40.66;22.01;100895.84;4936545;28;20057;-77
2022/06/08 06:47:25;;;;;;;3.72;2.25;;;39.70;59.20;;;40.53;22.05;100895.22;4964173;28;20120;-77
2022/06/08 06:49:52;;;;;;;6.32;2.47;;;39.70;60.00;;;40.62;22.06;100894.69;4949937;28;20472;-76
2022/06/08 06:52:18;;;;;;;3.80;2.42;;;39.70;60.10;;;40.54;21.94;100891.38;4936592;28;20605;-77
2022/06/08 06:54:45;;;;;;;4.28;2.10;;;39.80;59.80;;;40.71;21.83;100882.03;4951288;28;20026;-76
2022/06/08 06:57:11;;;;;;;3.63;2.20;;;39.90;59.40;;;40.74;21.87;100876.84;4942419;28;20818;-76
2022/06/08 06:59:38;;;;;;;4.65;2.25;;;40.00;59.20;;;40.77;21.57;100881.00;4962045;28;20042;-76
2022/06/08 07:02:14;;;;;;;5.75;2.45;;;40.00;58.20;;;40.69;22.02;100875.97;4937443;28;20346;-76
2022/06/08 07:04:41;;;;;;;4.63;2.33;;;40.10;59.00;;;40.59;22.18;100872.06;4935356;28;20068;-77
2022/06/08 07:07:07;;;;;;;6.43;2.50;;;40.00;57.90;;;40.43;21.94;100875.84;4954469;28;20438;-76
2022/06/08 07:09:33;;;;;;;4.95;2.63;;;39.90;59.00;;;40.40;22.59;100865.34;4953836;28;20019;-77
2022/06/08 07:11:59;;;;;;;4.72;2.63;;;39.80;58.20;;;40.23;22.64;100862.72;4947679;28;20395;-76
2022/06/08 07:14:25;;;;;;;5.80;2.70;;;39.70;58.30;;;40.10;22.78;100858.50;4950249;28;20027;-77
2022/06/08 07:16:52;;;;;;;4.85;2.42;;;39.80;59.20;;;40.12;22.49;100853.56;4943599;28;20035;-77
2022/06/08 07:19:18;;;;;;;4.25;2.53;;;39.60;58.80;;;40.03;22.56;100848.81;4952938;28;20077;-77
2022/06/08 07:21:45;;;;;;;5.68;3.28;;;39.40;58.60;;;39.67;23.31;100845.75;4975225;28;20047;-77
2022/06/08 07:24:33;;;;;;;6.00;3.25;;;39.30;58.80;;;39.68;23.13;100831.72;4946211;28;20427;-77
2022/06/08 07:27:01;;;;;;;6.35;3.22;;;39.30;58.40;;;39.70;22.57;100839.69;4927032;28;20039;-77
2022/06/08 07:29:27;;;;;;;7.57;3.38;;;39.00;58.00;;;38.59;23.38;100838.22;4943610;28;20039;-77
2022/06/08 07:31:53;;;;;;;4.75;3.03;;;38.10;57.90;;;36.72;25.29;100821.56;4952900;28;20042;-77
2022/06/08 07:34:20;;;;;;;5.10;3.13;;;37.00;59.60;;;35.73;26.20;100805.84;4955351;28;20038;-77
2022/06/08 07:36:46;;;;;;;7.30;3.05;;;36.00;60.10;;;35.07;27.09;100796.69;4946127;28;20082;-76
2022/06/08 07:39:16;;;;;;;5.40;3.30;;;35.50;61.40;;;35.44;26.81;100785.63;4945842;28;20027;-78
2022/06/08 07:41:47;;;;;;;4.95;3.17;;;35.20;61.90;;;35.13;26.85;100779.38;4959207;28;20519;-76
2022/06/08 07:44:15;;;;;;;4.85;2.90;;;35.10;62.90;;;35.54;26.57;100780.41;4947388;28;20106;-76
2022/06/08 07:46:41;;;;;;;6.32;3.33;;;35.30;63.00;;;35.97;26.69;100758.47;4944781;28;20027;-76
2022/06/08 07:51:53;;;;;;;7.20;3.60;;;35.70;62.40;;;36.03;26.31;100755.59;4951340;28;20093;-76
2022/06/08 07:54:25;;;;;;;5.32;3.10;;;35.60;61.10;;;35.70;26.54;100753.44;4942573;28;20031;-76
2022/06/08 07:56:53;;;;;;;6.30;3.15;;;35.20;62.10;;;35.09;27.40;100749.94;4953357;28;20057;-76
2022/06/08 07:59:28;;;;;;;6.68;3.45;;;34.80;62.70;;;34.41;28.43;100740.94;4959841;28;20027;-76
2022/06/08 08:01:54;;;;;;;5.13;3.72;;;34.40;63.60;;;34.17;28.92;100734.50;4959117;28;20043;-76
2022/06/08 08:04:21;;;;;;;5.57;3.92;;;34.10;63.40;;;34.22;28.57;100736.56;4934735;28;20034;-76
2022/06/08 08:06:48;;;;;;;7.15;3.40;;;34.00;64.30;;;34.50;28.27;100730.53;4961418;28;20032;-76
2022/06/08 08:09:20;;;;;;;7.18;3.90;;;34.00;64.30;;;34.11;28.34;100729.91;4937632;28;20031;-76
2022/06/08 08:11:49;;;;;;;4.68;3.20;;;33.60;64.70;;;33.17;30.16;100709.94;4963278;28;20027;-75
2022/06/08 08:14:16;;;;;;;9.35;4.25;;;33.00;66.50;;;32.67;31.43;100695.13;4956328;28;20020;-76
2022/06/08 08:16:43;;;;;;;7.50;3.65;;;32.50;65.50;;;31.96;31.08;100690.53;4959642;28;20023;-76
2022/06/08 08:19:12;;;;;;;7.43;3.95;;;32.00;68.50;;;31.43;32.42;100687.91;4959100;28;20074;-76
2022/06/08 08:21:38;;;;;;;7.57;3.55;;;31.50;68.60;;;30.91;32.86;100673.19;4952517;28;20121;-76
2022/06/08 08:24:06;;;;;;;5.38;3.60;;;31.00;69.20;;;30.50;33.52;100674.94;4944462;28;20031;-76
2022/06/08 08:26:32;;;;;;;9.40;3.90;;;30.70;70.50;;;30.05;34.94;100679.94;4940723;28;20042;-76
2022/06/08 08:28:58;;;;;;;6.97;4.18;;;30.30;72.50;;;29.97;35.16;100672.78;4950666;28;20586;-75
2022/06/08 08:31:25;;;;;;;5.50;3.60;;;30.00;71.80;;;29.77;35.11;100666.41;4951369;28;20038;-76
2022/06/08 08:33:51;;;;;;;5.43;3.90;;;29.80;74.00;;;29.43;36.23;100660.69;4944364;28;20035;-75
2022/06/08 08:36:19;;;;;;;6.35;3.83;;;29.60;72.40;;;29.39;35.70;100654.00;4927010;28;20042;-75
2022/06/08 08:38:46;;;;;;;8.57;4.00;;;29.60;74.00;;;29.56;35.70;100656.41;4935887;28;20030;-76
2022/06/08 08:44:07;;;;;;;12.13;4.45;;;29.90;72.40;;;29.46;35.96;100656.78;4947935;28;20569;-76
2022/06/08 08:46:45;;;;;;;6.95;4.00;;;29.80;72.60;;;29.19;35.92;100655.72;4952196;28;20050;-76
2022/06/08 08:49:20;;;;;;;7.35;4.28;;;29.50;72.60;;;28.90;36.16;100651.25;4957981;28;20039;-76
2022/06/08 08:52:00;;;;;;;5.78;4.22;;;29.10;72.40;;;28.20;36.90;100642.72;4926809;28;20043;-76
2022/06/08 08:54:34;;;;;;;7.38;4.53;;;28.60;73.40;;;27.81;37.57;100631.16;4958306;28;20217;-76
2022/06/08 08:57:12;;;;;;;6.38;4.25;;;28.30;75.80;;;27.51;38.17;100632.16;4935879;28;20038;-76
2022/06/08 08:59:43;;;;;;;7.30;4.40;;;27.90;75.10;;;27.26;38.39;100624.31;4947639;28;20140;-76
2022/06/08 09:03:14;;;;;;;6.93;3.80;;;27.60;75.10;;;27.02;38.70;100622.63;4958796;28;20034;-76
2022/06/08 09:05:16;;;;;;;9.77;3.72;;;27.50;76.70;;;27.40;38.86;100615.38;4952359;28;20105;-75
2022/06/08 09:07:46;;;;;;;6.53;4.28;;;27.70;76.90;;;27.73;37.92;100617.75;4951786;28;20026;-77
2022/06/08 09:10:24;;;;;;;7.25;3.28;;;27.90;78.80;;;28.01;37.96;100617.94;4934405;28;20702;-75
2022/06/08 09:12:54;;;;;;;6.65;3.03;;;28.10;75.70;;;28.10;37.31;100634.06;4958748;28;20054;-76
2022/06/08 09:15:54;;;;;;;5.93;2.90;;;28.20;74.10;;;28.05;38.37;100617.56;4931729;28;20050;-76
2022/06/08 09:18:41;;;;;;;5.65;3.00;;;28.20;77.50;;;28.13;39.23;100625.56;4932549;28;20668;-76
2022/06/08 09:21:33;;;;;;;5.93;3.80;;;28.30;76.90;;;28.14;38.72;100624.53;4929651;28;20121;-76
2022/06/08 09:24:35;;;;;;;7.53;3.58;;;28.40;77.50;;;28.32;38.94;100616.84;4919244;28;20050;-76
2022/06/08 09:27:13;;;;;;;6.72;3.60;;;28.60;79.10;;;28.42;38.75;100620.09;4931151;28;20039;-76
2022/06/08 09:29:58;;;;;;;8.23;3.28;;;28.70;75.90;;;28.60;38.37;100616.16;4938805;28;20031;-76
2022/06/08 09:32:50;;;;;;;6.82;2.83;;;28.90;76.40;;;28.78;37.20;100619.25;4958722;28;20077;-76
2022/06/08 09:35:27;;;;;;;8.98;3.13;;;29.10;76.20;;;29.09;37.79;100615.38;4941777;28;20038;-76
2022/06/08 09:38:02;;;;;;;9.10;3.00;;;29.40;73.70;;;29.24;36.37;100626.13;4947575;28;20038;-76
2022/06/08 09:40:40;;;;;;;7.43;3.00;;;29.50;74.50;;;29.20;36.94;100624.84;4936584;28;20083;-76
2022/06/08 09:43:45;;;;;;;5.90;3.53;;;29.50;74.50;;;28.96;37.30;100618.81;4945145;28;20030;-76
2022/06/08 09:53:12;;;;;;;3.58;2.58;;;28.50;75.70;;;28.13;38.40;100606.63;4939676;28;20158;-76
2022/06/08 09:56:19;;;;;;;3.15;2.28;;;28.40;73.90;;;28.28;36.82;100607.44;4951210;28;20035;-76
2022/06/08 09:59:33;;;;;;;5.07;2.33;;;28.60;74.70;;;28.38;37.90;100599.84;4928473;28;20027;-76
2022/06/08 10:02:41;;;;;;;4.60;2.30;;;28.70;75.40;;;28.74;37.89;100596.28;4924422;28;20030;-76
2022/06/08 10:06:03;;;;;;;4.90;2.60;;;29.10;78.60;;;29.18;37.82;100592.53;4949433;28;20101;-76
2022/06/08 10:09:08;;;;;;;7.15;2.70;;;29.50;76.90;;;29.66;37.22;100589.09;4955750;28;20031;-76
2022/06/08 10:12:23;;;;;;;5.78;3.00;;;29.90;76.30;;;29.97;37.09;100591.34;4910578;28;20038;-76
2022/06/08 10:15:24;;;;;;;4.40;2.33;;;30.20;74.50;;;30.04;35.94;100586.81;4947337;28;20061;-76
2022/06/08 10:18:16;;;;;;;4.00;2.28;;;30.30;71.80;;;29.88;34.50;100599.88;4945835;28;20034;-76
2022/06/08 10:20:50;;;;;;;5.07;1.85;;;30.20;70.80;;;29.81;33.73;100602.56;4956962;28;20046;-76
2022/06/08 10:23:57;;;;;;;4.10;1.90;;;30.10;71.40;;;29.84;34.98;100596.72;4959994;28;20051;-77
2022/06/08 10:27:13;;;;;;;3.95;1.80;;;30.20;70.90;;;29.92;34.47;100598.44;4942921;28;20077;-76
2022/06/08 10:30:10;;;;;;;5.57;1.75;;;30.20;72.10;;;30.00;35.63;100596.38;4918300;28;20058;-76
2022/06/08 10:32:56;;;;;;;6.13;1.65;;;30.30;70.80;;;30.04;33.57;100597.66;4945569;28;21000;-76
2022/06/08 10:35:46;;;;;;;2.20;1.35;;;30.40;67.60;;;30.27;31.62;100626.34;4935100;28;20062;-76
2022/06/08 10:38:25;;;;;;;1.73;1.63;;;30.60;68.40;;;30.33;32.91;100614.72;4934061;28;20086;-76
2022/06/08 10:44:04;;;;;;;4.32;1.30;;;30.70;65.90;;;30.37;31.24;100626.00;4960370;28;20122;-76
2022/06/08 10:46:40;;;;;;;3.30;1.60;;;30.60;67.90;;;30.29;32.30;100618.88;4962956;28;20053;-77
2022/06/08 10:49:30;;;;;;;2.72;1.80;;;30.70;68.60;;;30.50;32.20;100622.47;4936507;28;20603;-76
2022/06/08 10:52:20;;;;;;;3.33;1.55;;;30.20;66.80;;;29.48;33.19;100624.84;4936238;28;20030;-76
2022/06/08 10:55:10;;;;;;;2.45;1.33;;;30.10;71.00;;;29.58;34.55;100609.06;4968432;28;20684;-77
2022/06/08 10:57:35;;;;;;;4.10;1.60;;;29.90;67.70;;;29.34;33.84;100607.66;4950794;28;20039;-76